Rechercher aéroport 
image banner adimage banner adimage banner ad
image banner ad

L94 - Mountain Valley

Situé à Tehachapi, United States

ICAO - L94, IATA -

Données fournies par Airmate  

Information générale

Coordonnées: N35°6'4" W118°25'23"
Élévation : 4220 feet MSL.
Variation magnétique : 14° East
Voir autres Aéroports à California

Données opérationnelles

Special qualification required
Heure actuelle UTC:
Heure actuelle locale:
Météo à : KTSP - Tehachapi Muni ( 4 km )
METAR: KTSP 251135Z AUTO 28005KT 10SM CLR 20/02 A3010 RMK AO2
Voir NOTAMs / SUP AIP / TFR affectant cet aéroport [VIEW]
Fréquences de communication: [VIEW]

Pistes:

Identifiant RWYQFULongueur (ft)Largeur (ft)SurfaceLDA (ft)
09L489036OTHER
27R489036OTHER
09R489036OTHER
27L489036OTHER

Coordonnées de l'aéroport

Adresse: Tehachapi United States

Autres services d'aviation

Écoles de pilotage

Skylark North

Skylark North
mva7@earthlink.net+1(661)822-5267

Vue satellite de L94